sensor_id;sensor_type;location;lat;lon;timestamp;P1;durP1;ratioP1;P2;durP2;ratioP2
50733;SDS011;36701;51.798;19.474;2023-06-19T02:02:08;18.17;;;13.23;;
50733;SDS011;36701;51.798;19.474;2023-06-19T02:04:41;15.85;;;13.40;;
50733;SDS011;36701;51.798;19.474;2023-06-19T02:07:07;17.73;;;13.35;;
50733;SDS011;36701;51.798;19.474;2023-06-19T02:09:33;21.52;;;12.80;;
50733;SDS011;36701;51.798;19.474;2023-06-19T02:11:59;16.58;;;13.38;;
50733;SDS011;36701;51.798;19.474;2023-06-19T02:14:33;17.12;;;12.70;;
50733;SDS011;36701;51.798;19.474;2023-06-19T02:16:59;18.95;;;13.57;;
50733;SDS011;36701;51.798;19.474;2023-06-19T02:19:25;17.10;;;13.38;;
50733;SDS011;36701;51.798;19.474;2023-06-19T02:21:51;14.95;;;12.55;;
50733;SDS011;36701;51.798;19.474;2023-06-19T02:24:17;16.65;;;13.05;;
50733;SDS011;36701;51.798;19.474;2023-06-19T02:26:43;17.02;;;13.02;;
50733;SDS011;36701;51.798;19.474;2023-06-19T02:29:10;17.08;;;13.77;;
50733;SDS011;36701;51.798;19.474;2023-06-19T02:31:36;17.05;;;13.27;;
50733;SDS011;36701;51.798;19.474;2023-06-19T02:34:05;15.50;;;13.77;;
50733;SDS011;36701;51.798;19.474;2023-06-19T02:36:30;19.33;;;14.20;;
50733;SDS011;36701;51.798;19.474;2023-06-19T02:38:57;18.40;;;13.30;;
50733;SDS011;36701;51.798;19.474;2023-06-19T02:41:23;23.60;;;14.70;;
50733;SDS011;36701;51.798;19.474;2023-06-19T02:43:50;18.15;;;12.85;;
50733;SDS011;36701;51.798;19.474;2023-06-19T02:46:16;17.00;;;12.35;;
50733;SDS011;36701;51.798;19.474;2023-06-19T02:48:43;17.00;;;13.07;;
50733;SDS011;36701;51.798;19.474;2023-06-19T02:51:08;18.92;;;12.55;;
50733;SDS011;36701;51.798;19.474;2023-06-19T02:53:35;15.07;;;12.40;;
50733;SDS011;36701;51.798;19.474;2023-06-19T02:56:01;15.60;;;12.35;;
50733;SDS011;36701;51.798;19.474;2023-06-19T02:58:27;18.80;;;13.45;;
50733;SDS011;36701;51.798;19.474;2023-06-19T03:00:55;18.05;;;12.45;;
50733;SDS011;36701;51.798;19.474;2023-06-19T03:03:21;15.73;;;12.48;;
50733;SDS011;36701;51.798;19.474;2023-06-19T03:05:49;15.55;;;13.18;;
50733;SDS011;36701;51.798;19.474;2023-06-19T03:08:16;16.62;;;13.00;;
50733;SDS011;36701;51.798;19.474;2023-06-19T03:10:42;22.83;;;13.20;;
50733;SDS011;36701;51.798;19.474;2023-06-19T03:13:08;18.75;;;14.60;;
50733;SDS011;36701;51.798;19.474;2023-06-19T03:15:34;17.42;;;12.68;;
50733;SDS011;36701;51.798;19.474;2023-06-19T03:18:01;14.80;;;13.13;;
50733;SDS011;36701;51.798;19.474;2023-06-19T03:20:30;17.48;;;14.30;;
50733;SDS011;36701;51.798;19.474;2023-06-19T03:22:56;16.67;;;13.48;;
50733;SDS011;36701;51.798;19.474;2023-06-19T03:25:23;19.37;;;13.88;;
50733;SDS011;36701;51.798;19.474;2023-06-19T03:27:49;14.05;;;12.50;;
50733;SDS011;36701;51.798;19.474;2023-06-19T03:30:16;15.95;;;13.20;;
50733;SDS011;36701;51.798;19.474;2023-06-19T03:32:45;22.20;;;14.20;;
50733;SDS011;36701;51.798;19.474;2023-06-19T03:35:12;18.65;;;13.68;;
50733;SDS011;36701;51.798;19.474;2023-06-19T03:37:39;20.08;;;13.98;;
50733;SDS011;36701;51.798;19.474;2023-06-19T03:40:06;20.92;;;14.52;;
50733;SDS011;36701;51.798;19.474;2023-06-19T03:42:34;22.40;;;14.15;;
50733;SDS011;36701;51.798;19.474;2023-06-19T03:45:00;21.73;;;14.02;;
50733;SDS011;36701;51.798;19.474;2023-06-19T03:47:27;18.73;;;14.00;;
50733;SDS011;36701;51.798;19.474;2023-06-19T03:49:53;22.92;;;13.75;;
50733;SDS011;36701;51.798;19.474;2023-06-19T03:52:19;19.95;;;14.48;;
50733;SDS011;36701;51.798;19.474;2023-06-19T03:54:45;16.45;;;13.43;;
50733;SDS011;36701;51.798;19.474;2023-06-19T03:57:11;17.90;;;13.65;;
50733;SDS011;36701;51.798;19.474;2023-06-19T03:59:37;18.05;;;13.73;;
50733;SDS011;36701;51.798;19.474;2023-06-19T04:02:04;21.23;;;15.07;;
50733;SDS011;36701;51.798;19.474;2023-06-19T04:04:30;17.85;;;14.32;;
50733;SDS011;36701;51.798;19.474;2023-06-19T04:06:56;21.08;;;16.10;;
50733;SDS011;36701;51.798;19.474;2023-06-19T04:09:25;15.98;;;13.48;;
50733;SDS011;36701;51.798;19.474;2023-06-19T04:11:51;19.95;;;15.35;;
50733;SDS011;36701;51.798;19.474;2023-06-19T04:14:17;17.50;;;14.02;;
50733;SDS011;36701;51.798;19.474;2023-06-19T04:16:43;20.33;;;15.15;;
50733;SDS011;36701;51.798;19.474;2023-06-19T04:19:09;18.40;;;14.55;;
50733;SDS011;36701;51.798;19.474;2023-06-19T04:21:36;22.02;;;14.80;;
50733;SDS011;36701;51.798;19.474;2023-06-19T04:24:04;16.42;;;14.48;;
50733;SDS011;36701;51.798;19.474;2023-06-19T04:26:35;18.98;;;14.07;;
50733;SDS011;36701;51.798;19.474;2023-06-19T04:29:03;22.90;;;14.85;;
50733;SDS011;36701;51.798;19.474;2023-06-19T04:31:34;19.33;;;14.60;;
50733;SDS011;36701;51.798;19.474;2023-06-19T04:34:10;19.42;;;14.48;;
50733;SDS011;36701;51.798;19.474;2023-06-19T04:36:36;21.15;;;13.32;;
50733;SDS011;36701;51.798;19.474;2023-06-19T04:39:02;15.48;;;13.50;;
50733;SDS011;36701;51.798;19.474;2023-06-19T04:41:29;17.52;;;13.32;;
50733;SDS011;36701;51.798;19.474;2023-06-19T04:43:55;22.67;;;12.80;;
50733;SDS011;36701;51.798;19.474;2023-06-19T04:46:21;18.80;;;12.93;;
50733;SDS011;36701;51.798;19.474;2023-06-19T04:48:47;20.62;;;13.43;;
50733;SDS011;36701;51.798;19.474;2023-06-19T04:51:17;22.52;;;12.48;;
50733;SDS011;36701;51.798;19.474;2023-06-19T04:53:46;25.33;;;11.73;;
50733;SDS011;36701;51.798;19.474;2023-06-19T04:56:14;20.05;;;11.82;;
50733;SDS011;36701;51.798;19.474;2023-06-19T04:58:40;16.62;;;11.80;;
50733;SDS011;36701;51.798;19.474;2023-06-19T05:01:12;15.77;;;10.98;;
50733;SDS011;36701;51.798;19.474;2023-06-19T05:03:39;17.33;;;10.18;;
50733;SDS011;36701;51.798;19.474;2023-06-19T05:06:05;17.73;;;10.80;;
50733;SDS011;36701;51.798;19.474;2023-06-19T05:08:31;17.98;;;10.80;;
50733;SDS011;36701;51.798;19.474;2023-06-19T05:10:57;16.67;;;9.07;;
50733;SDS011;36701;51.798;19.474;2023-06-19T05:13:24;16.05;;;9.50;;
50733;SDS011;36701;51.798;19.474;2023-06-19T05:15:50;19.37;;;8.38;;
50733;SDS011;36701;51.798;19.474;2023-06-19T05:18:16;16.15;;;8.38;;
50733;SDS011;36701;51.798;19.474;2023-06-19T05:20:43;15.20;;;8.80;;
50733;SDS011;36701;51.798;19.474;2023-06-19T05:23:10;9.48;;;8.45;;
50733;SDS011;36701;51.798;19.474;2023-06-19T05:25:36;12.45;;;7.28;;
50733;SDS011;36701;51.798;19.474;2023-06-19T05:28:02;9.70;;;8.07;;
50733;SDS011;36701;51.798;19.474;2023-06-19T05:30:28;11.07;;;8.90;;
50733;SDS011;36701;51.798;19.474;2023-06-19T05:32:55;17.98;;;8.77;;
50733;SDS011;36701;51.798;19.474;2023-06-19T05:35:21;16.98;;;7.53;;
50733;SDS011;36701;51.798;19.474;2023-06-19T05:37:47;15.82;;;8.35;;
50733;SDS011;36701;51.798;19.474;2023-06-19T05:40:14;16.58;;;7.75;;
50733;SDS011;36701;51.798;19.474;2023-06-19T05:42:40;9.73;;;7.72;;
50733;SDS011;36701;51.798;19.474;2023-06-19T05:45:06;11.15;;;7.20;;
50733;SDS011;36701;51.798;19.474;2023-06-19T05:47:33;15.90;;;7.62;;
50733;SDS011;36701;51.798;19.474;2023-06-19T05:49:59;17.95;;;7.40;;
50733;SDS011;36701;51.798;19.474;2023-06-19T05:52:25;11.52;;;7.00;;
50733;SDS011;36701;51.798;19.474;2023-06-19T05:54:52;11.45;;;7.87;;
50733;SDS011;36701;51.798;19.474;2023-06-19T05:57:19;7.37;;;6.32;;
50733;SDS011;36701;51.798;19.474;2023-06-19T05:59:47;8.25;;;7.15;;
50733;SDS011;36701;51.798;19.474;2023-06-19T06:02:13;10.95;;;6.78;;
50733;SDS011;36701;51.798;19.474;2023-06-19T06:04:40;23.38;;;7.57;;
50733;SDS011;36701;51.798;19.474;2023-06-19T06:07:06;9.20;;;6.70;;
50733;SDS011;36701;51.798;19.474;2023-06-19T06:09:33;12.63;;;8.63;;
50733;SDS011;36701;51.798;19.474;2023-06-19T06:11:59;9.05;;;8.15;;
50733;SDS011;36701;51.798;19.474;2023-06-19T06:14:26;12.98;;;9.15;;
50733;SDS011;36701;51.798;19.474;2023-06-19T06:16:59;8.05;;;7.05;;
50733;SDS011;36701;51.798;19.474;2023-06-19T06:19:25;8.55;;;6.90;;
50733;SDS011;36701;51.798;19.474;2023-06-19T06:21:51;10.90;;;8.38;;
50733;SDS011;36701;51.798;19.474;2023-06-19T06:24:18;12.20;;;8.40;;
50733;SDS011;36701;51.798;19.474;2023-06-19T06:26:44;11.12;;;7.45;;
50733;SDS011;36701;51.798;19.474;2023-06-19T06:29:11;8.15;;;6.68;;
50733;SDS011;36701;51.798;19.474;2023-06-19T06:31:37;9.80;;;6.62;;
50733;SDS011;36701;51.798;19.474;2023-06-19T06:34:04;8.15;;;6.95;;
50733;SDS011;36701;51.798;19.474;2023-06-19T06:36:30;7.72;;;6.32;;
50733;SDS011;36701;51.798;19.474;2023-06-19T06:38:56;7.82;;;6.40;;
50733;SDS011;36701;51.798;19.474;2023-06-19T06:41:22;8.68;;;6.20;;
50733;SDS011;36701;51.798;19.474;2023-06-19T06:43:49;8.75;;;5.80;;
50733;SDS011;36701;51.798;19.474;2023-06-19T06:46:14;9.63;;;6.30;;
50733;SDS011;36701;51.798;19.474;2023-06-19T06:48:41;7.50;;;5.35;;
50733;SDS011;36701;51.798;19.474;2023-06-19T06:51:07;6.85;;;5.40;;
50733;SDS011;36701;51.798;19.474;2023-06-19T06:53:36;7.65;;;5.53;;
50733;SDS011;36701;51.798;19.474;2023-06-19T06:56:02;8.52;;;6.22;;
50733;SDS011;36701;51.798;19.474;2023-06-19T06:58:29;6.40;;;5.80;;
50733;SDS011;36701;51.798;19.474;2023-06-19T07:00:55;8.45;;;5.32;;
50733;SDS011;36701;51.798;19.474;2023-06-19T07:03:22;5.87;;;4.87;;
50733;SDS011;36701;51.798;19.474;2023-06-19T07:05:47;5.90;;;5.22;;
50733;SDS011;36701;51.798;19.474;2023-06-19T07:08:14;7.93;;;4.68;;
50733;SDS011;36701;51.798;19.474;2023-06-19T07:10:40;7.22;;;5.55;;
50733;SDS011;36701;51.798;19.474;2023-06-19T07:13:06;9.77;;;4.55;;
50733;SDS011;36701;51.798;19.474;2023-06-19T07:15:32;10.40;;;4.72;;
50733;SDS011;36701;51.798;19.474;2023-06-19T07:17:58;7.87;;;6.05;;
50733;SDS011;36701;51.798;19.474;2023-06-19T07:20:24;11.80;;;4.97;;
50733;SDS011;36701;51.798;19.474;2023-06-19T07:22:51;4.95;;;4.47;;
50733;SDS011;36701;51.798;19.474;2023-06-19T07:25:17;6.43;;;4.65;;
50733;SDS011;36701;51.798;19.474;2023-06-19T07:27:43;8.05;;;3.83;;
50733;SDS011;36701;51.798;19.474;2023-06-19T07:30:09;7.53;;;4.78;;
50733;SDS011;36701;51.798;19.474;2023-06-19T07:32:37;5.72;;;5.22;;
50733;SDS011;36701;51.798;19.474;2023-06-19T07:35:04;5.05;;;4.57;;
50733;SDS011;36701;51.798;19.474;2023-06-19T07:37:30;6.03;;;4.20;;
50733;SDS011;36701;51.798;19.474;2023-06-19T07:39:56;5.55;;;4.82;;
50733;SDS011;36701;51.798;19.474;2023-06-19T07:42:23;4.57;;;4.18;;
50733;SDS011;36701;51.798;19.474;2023-06-19T07:44:49;4.20;;;3.90;;
50733;SDS011;36701;51.798;19.474;2023-06-19T07:47:16;13.15;;;3.78;;
50733;SDS011;36701;51.798;19.474;2023-06-19T07:49:50;6.22;;;4.05;;
50733;SDS011;36701;51.798;19.474;2023-06-19T07:52:16;4.65;;;3.55;;
50733;SDS011;36701;51.798;19.474;2023-06-19T07:54:50;7.53;;;3.40;;
50733;SDS011;36701;51.798;19.474;2023-06-19T07:57:16;4.53;;;4.00;;
50733;SDS011;36701;51.798;19.474;2023-06-19T07:59:42;6.72;;;4.47;;
50733;SDS011;36701;51.798;19.474;2023-06-19T08:02:08;4.05;;;3.75;;
50733;SDS011;36701;51.798;19.474;2023-06-19T08:04:34;4.80;;;4.10;;
50733;SDS011;36701;51.798;19.474;2023-06-19T08:07:01;4.25;;;3.85;;
50733;SDS011;36701;51.798;19.474;2023-06-19T08:09:27;6.20;;;4.43;;
50733;SDS011;36701;51.798;19.474;2023-06-19T08:11:53;4.57;;;4.18;;
50733;SDS011;36701;51.798;19.474;2023-06-19T08:14:19;12.60;;;3.92;;
50733;SDS011;36701;51.798;19.474;2023-06-19T08:16:45;4.32;;;3.97;;
50733;SDS011;36701;51.798;19.474;2023-06-19T08:19:11;3.70;;;3.40;;
50733;SDS011;36701;51.798;19.474;2023-06-19T08:21:37;4.20;;;3.83;;
50733;SDS011;36701;51.798;19.474;2023-06-19T08:24:03;4.25;;;3.95;;
50733;SDS011;36701;51.798;19.474;2023-06-19T08:26:30;4.30;;;4.00;;
50733;SDS011;36701;51.798;19.474;2023-06-19T08:28:56;4.72;;;4.30;;
50733;SDS011;36701;51.798;19.474;2023-06-19T08:31:22;7.62;;;4.05;;
50733;SDS011;36701;51.798;19.474;2023-06-19T08:33:53;4.53;;;3.90;;
50733;SDS011;36701;51.798;19.474;2023-06-19T08:36:19;4.43;;;4.12;;
50733;SDS011;36701;51.798;19.474;2023-06-19T08:38:45;5.20;;;4.62;;
50733;SDS011;36701;51.798;19.474;2023-06-19T08:41:18;14.60;;;4.25;;
50733;SDS011;36701;51.798;19.474;2023-06-19T08:46:16;6.60;;;3.92;;
50733;SDS011;36701;51.798;19.474;2023-06-19T08:48:43;4.05;;;3.75;;
50733;SDS011;36701;51.798;19.474;2023-06-19T08:51:10;4.97;;;3.80;;
50733;SDS011;36701;51.798;19.474;2023-06-19T08:53:43;8.52;;;3.72;;
50733;SDS011;36701;51.798;19.474;2023-06-19T08:56:09;3.53;;;3.33;;
50733;SDS011;36701;51.798;19.474;2023-06-19T08:58:36;3.65;;;3.20;;
50733;SDS011;36701;51.798;19.474;2023-06-19T09:01:03;3.53;;;3.22;;
50733;SDS011;36701;51.798;19.474;2023-06-19T09:03:29;4.10;;;3.80;;
50733;SDS011;36701;51.798;19.474;2023-06-19T09:05:55;3.65;;;3.35;;
50733;SDS011;36701;51.798;19.474;2023-06-19T09:08:21;3.78;;;3.30;;
50733;SDS011;36701;51.798;19.474;2023-06-19T09:10:58;4.45;;;3.47;;
50733;SDS011;36701;51.798;19.474;2023-06-19T09:13:25;5.72;;;3.45;;
50733;SDS011;36701;51.798;19.474;2023-06-19T09:15:57;6.53;;;3.78;;
50733;SDS011;36701;51.798;19.474;2023-06-19T09:18:24;3.42;;;3.20;;
50733;SDS011;36701;51.798;19.474;2023-06-19T09:20:52;3.70;;;3.40;;
50733;SDS011;36701;51.798;19.474;2023-06-19T09:23:18;4.15;;;3.72;;
50733;SDS011;36701;51.798;19.474;2023-06-19T09:28:24;5.20;;;4.07;;
50733;SDS011;36701;51.798;19.474;2023-06-19T09:30:58;6.47;;;3.22;;
50733;SDS011;36701;51.798;19.474;2023-06-19T09:33:28;5.82;;;3.55;;
50733;SDS011;36701;51.798;19.474;2023-06-19T09:35:55;6.05;;;2.85;;
50733;SDS011;36701;51.798;19.474;2023-06-19T09:38:23;3.37;;;3.08;;
50733;SDS011;36701;51.798;19.474;2023-06-19T09:40:50;3.67;;;3.45;;
50733;SDS011;36701;51.798;19.474;2023-06-19T09:43:18;10.02;;;3.50;;
50733;SDS011;36701;51.798;19.474;2023-06-19T09:45:47;4.62;;;3.00;;
50733;SDS011;36701;51.798;19.474;2023-06-19T09:48:15;3.37;;;3.08;;
50733;SDS011;36701;51.798;19.474;2023-06-19T09:50:46;3.40;;;3.10;;
50733;SDS011;36701;51.798;19.474;2023-06-19T09:53:16;3.92;;;3.62;;
50733;SDS011;36701;51.798;19.474;2023-06-19T09:55:43;5.00;;;3.47;;
50733;SDS011;36701;51.798;19.474;2023-06-19T09:58:09;3.10;;;2.90;;
50733;SDS011;36701;51.798;19.474;2023-06-19T10:00:36;4.53;;;4.18;;
50733;SDS011;36701;51.798;19.474;2023-06-19T10:03:03;6.72;;;3.50;;
50733;SDS011;36701;51.798;19.474;2023-06-19T10:05:31;3.72;;;3.15;;
50733;SDS011;36701;51.798;19.474;2023-06-19T10:07:57;4.65;;;3.83;;
50733;SDS011;36701;51.798;19.474;2023-06-19T10:10:26;3.80;;;3.05;;
50733;SDS011;36701;51.798;19.474;2023-06-19T10:12:57;4.40;;;2.78;;
50733;SDS011;36701;51.798;19.474;2023-06-19T10:15:24;4.55;;;3.30;;
50733;SDS011;36701;51.798;19.474;2023-06-19T10:17:53;4.43;;;3.47;;
50733;SDS011;36701;51.798;19.474;2023-06-19T10:20:20;9.98;;;3.80;;
50733;SDS011;36701;51.798;19.474;2023-06-19T10:22:53;5.82;;;3.15;;
50733;SDS011;36701;51.798;19.474;2023-06-19T10:25:27;6.32;;;2.97;;
50733;SDS011;36701;51.798;19.474;2023-06-19T10:27:53;3.50;;;3.28;;
50733;SDS011;36701;51.798;19.474;2023-06-19T10:30:20;4.00;;;3.70;;
50733;SDS011;36701;51.798;19.474;2023-06-19T10:32:47;4.10;;;3.65;;
50733;SDS011;36701;51.798;19.474;2023-06-19T10:35:20;5.03;;;3.95;;
50733;SDS011;36701;51.798;19.474;2023-06-19T10:37:47;9.98;;;7.62;;
50733;SDS011;36701;51.798;19.474;2023-06-19T10:40:14;4.45;;;3.58;;
50733;SDS011;36701;51.798;19.474;2023-06-19T10:42:41;6.87;;;3.47;;
50733;SDS011;36701;51.798;19.474;2023-06-19T10:45:08;6.70;;;3.35;;
50733;SDS011;36701;51.798;19.474;2023-06-19T10:47:42;7.30;;;4.30;;
50733;SDS011;36701;51.798;19.474;2023-06-19T10:50:11;4.05;;;3.60;;
50733;SDS011;36701;51.798;19.474;2023-06-19T10:52:44;5.10;;;3.97;;
50733;SDS011;36701;51.798;19.474;2023-06-19T10:55:12;5.68;;;3.92;;
50733;SDS011;36701;51.798;19.474;2023-06-19T10:57:38;3.60;;;3.40;;
50733;SDS011;36701;51.798;19.474;2023-06-19T11:00:05;4.65;;;3.05;;
50733;SDS011;36701;51.798;19.474;2023-06-19T11:02:57;3.92;;;3.53;;
50733;SDS011;36701;51.798;19.474;2023-06-19T11:05:25;4.12;;;3.83;;
50733;SDS011;36701;51.798;19.474;2023-06-19T11:07:52;3.75;;;3.40;;
50733;SDS011;36701;51.798;19.474;2023-06-19T11:10:19;5.45;;;3.75;;
50733;SDS011;36701;51.798;19.474;2023-06-19T11:12:46;4.03;;;3.72;;
50733;SDS011;36701;51.798;19.474;2023-06-19T11:15:12;4.35;;;4.03;;
50733;SDS011;36701;51.798;19.474;2023-06-19T11:17:38;3.80;;;3.45;;
50733;SDS011;36701;51.798;19.474;2023-06-19T11:20:08;6.87;;;3.45;;
50733;SDS011;36701;51.798;19.474;2023-06-19T11:22:36;3.87;;;3.58;;
50733;SDS011;36701;51.798;19.474;2023-06-19T11:25:03;4.03;;;3.60;;
50733;SDS011;36701;51.798;19.474;2023-06-19T11:27:30;3.75;;;3.55;;
50733;SDS011;36701;51.798;19.474;2023-06-19T11:29:57;7.50;;;3.35;;
50733;SDS011;36701;51.798;19.474;2023-06-19T11:32:29;3.45;;;3.03;;
50733;SDS011;36701;51.798;19.474;2023-06-19T11:35:03;3.58;;;3.22;;
50733;SDS011;36701;51.798;19.474;2023-06-19T11:37:30;6.95;;;4.05;;
50733;SDS011;36701;51.798;19.474;2023-06-19T11:39:57;3.65;;;3.35;;
50733;SDS011;36701;51.798;19.474;2023-06-19T11:42:23;6.75;;;6.15;;
50733;SDS011;36701;51.798;19.474;2023-06-19T11:44:54;3.90;;;3.50;;
50733;SDS011;36701;51.798;19.474;2023-06-19T11:47:21;3.58;;;3.30;;
50733;SDS011;36701;51.798;19.474;2023-06-19T11:49:48;8.27;;;3.53;;
50733;SDS011;36701;51.798;19.474;2023-06-19T11:52:15;3.55;;;3.35;;
50733;SDS011;36701;51.798;19.474;2023-06-19T11:54:42;4.25;;;3.30;;
50733;SDS011;36701;51.798;19.474;2023-06-19T11:57:12;13.70;;;3.58;;
50733;SDS011;36701;51.798;19.474;2023-06-19T11:59:41;4.57;;;4.18;;
50733;SDS011;36701;51.798;19.474;2023-06-19T12:02:08;3.65;;;3.42;;
50733;SDS011;36701;51.798;19.474;2023-06-19T12:04:35;10.00;;;4.10;;
50733;SDS011;36701;51.798;19.474;2023-06-19T12:07:01;24.12;;;4.07;;
50733;SDS011;36701;51.798;19.474;2023-06-19T12:09:28;4.70;;;3.72;;
50733;SDS011;36701;51.798;19.474;2023-06-19T12:11:55;7.30;;;3.28;;
50733;SDS011;36701;51.798;19.474;2023-06-19T12:14:21;3.53;;;3.22;;
50733;SDS011;36701;51.798;19.474;2023-06-19T12:16:47;3.20;;;3.00;;
50733;SDS011;36701;51.798;19.474;2023-06-19T12:19:14;3.10;;;2.83;;
50733;SDS011;36701;51.798;19.474;2023-06-19T12:21:40;3.95;;;3.65;;
50733;SDS011;36701;51.798;19.474;2023-06-19T12:24:06;3.53;;;3.12;;
50733;SDS011;36701;51.798;19.474;2023-06-19T12:26:36;3.00;;;2.75;;
50733;SDS011;36701;51.798;19.474;2023-06-19T12:29:03;9.93;;;3.10;;
50733;SDS011;36701;51.798;19.474;2023-06-19T12:31:29;3.97;;;3.30;;
50733;SDS011;36701;51.798;19.474;2023-06-19T12:33:56;3.40;;;3.17;;
50733;SDS011;36701;51.798;19.474;2023-06-19T12:36:22;4.43;;;3.50;;
50733;SDS011;36701;51.798;19.474;2023-06-19T12:38:48;3.20;;;3.00;;
50733;SDS011;36701;51.798;19.474;2023-06-19T12:41:15;4.15;;;3.83;;
50733;SDS011;36701;51.798;19.474;2023-06-19T12:43:41;7.30;;;3.60;;
50733;SDS011;36701;51.798;19.474;2023-06-19T12:46:07;3.72;;;3.45;;
50733;SDS011;36701;51.798;19.474;2023-06-19T12:48:33;3.58;;;3.15;;
50733;SDS011;36701;51.798;19.474;2023-06-19T12:50:59;3.10;;;2.90;;
50733;SDS011;36701;51.798;19.474;2023-06-19T12:53:26;4.37;;;3.60;;
50733;SDS011;36701;51.798;19.474;2023-06-19T12:55:59;4.10;;;3.80;;
50733;SDS011;36701;51.798;19.474;2023-06-19T12:58:25;7.97;;;3.42;;
50733;SDS011;36701;51.798;19.474;2023-06-19T13:00:52;6.00;;;3.05;;
50733;SDS011;36701;51.798;19.474;2023-06-19T13:03:19;3.53;;;3.30;;
50733;SDS011;36701;51.798;19.474;2023-06-19T13:05:48;3.60;;;3.30;;
50733;SDS011;36701;51.798;19.474;2023-06-19T13:08:14;3.50;;;3.20;;
50733;SDS011;36701;51.798;19.474;2023-06-19T13:10:41;3.40;;;3.20;;
50733;SDS011;36701;51.798;19.474;2023-06-19T13:13:13;3.62;;;3.03;;
50733;SDS011;36701;51.798;19.474;2023-06-19T13:15:39;4.00;;;3.72;;
50733;SDS011;36701;51.798;19.474;2023-06-19T13:18:06;5.62;;;3.47;;
50733;SDS011;36701;51.798;19.474;2023-06-19T13:20:31;4.70;;;4.12;;
50733;SDS011;36701;51.798;19.474;2023-06-19T13:22:58;3.75;;;3.47;;
50733;SDS011;36701;51.798;19.474;2023-06-19T13:25:24;3.95;;;3.65;;
50733;SDS011;36701;51.798;19.474;2023-06-19T13:27:50;3.70;;;3.40;;
50733;SDS011;36701;51.798;19.474;2023-06-19T13:30:16;4.43;;;3.37;;
50733;SDS011;36701;51.798;19.474;2023-06-19T13:32:43;3.22;;;3.00;;
50733;SDS011;36701;51.798;19.474;2023-06-19T13:35:09;3.80;;;3.50;;
50733;SDS011;36701;51.798;19.474;2023-06-19T13:37:36;3.03;;;2.83;;
50733;SDS011;36701;51.798;19.474;2023-06-19T13:40:02;2.78;;;2.58;;
50733;SDS011;36701;51.798;19.474;2023-06-19T13:42:29;2.75;;;2.55;;
50733;SDS011;36701;51.798;19.474;2023-06-19T13:44:55;3.90;;;3.55;;
50733;SDS011;36701;51.798;19.474;2023-06-19T13:47:21;5.85;;;2.90;;
50733;SDS011;36701;51.798;19.474;2023-06-19T13:49:54;3.78;;;2.90;;
50733;SDS011;36701;51.798;19.474;2023-06-19T13:52:20;3.28;;;3.10;;
50733;SDS011;36701;51.798;19.474;2023-06-19T13:54:46;2.92;;;2.72;;
50733;SDS011;36701;51.798;19.474;2023-06-19T13:57:13;2.80;;;2.60;;
50733;SDS011;36701;51.798;19.474;2023-06-19T13:59:38;3.33;;;2.90;;
50733;SDS011;36701;51.798;19.474;2023-06-19T14:02:05;6.12;;;2.35;;
50733;SDS011;36701;51.798;19.474;2023-06-19T14:04:32;4.12;;;2.90;;
50733;SDS011;36701;51.798;19.474;2023-06-19T14:06:58;2.75;;;2.65;;
50733;SDS011;36701;51.798;19.474;2023-06-19T14:09:24;2.85;;;2.70;;
50733;SDS011;36701;51.798;19.474;2023-06-19T14:11:51;3.00;;;2.75;;
50733;SDS011;36701;51.798;19.474;2023-06-19T14:14:17;6.22;;;3.28;;
50733;SDS011;36701;51.798;19.474;2023-06-19T14:16:43;3.25;;;3.00;;
50733;SDS011;36701;51.798;19.474;2023-06-19T14:19:10;3.35;;;3.12;;
50733;SDS011;36701;51.798;19.474;2023-06-19T14:21:36;3.60;;;3.30;;
50733;SDS011;36701;51.798;19.474;2023-06-19T14:24:02;3.83;;;3.08;;
50733;SDS011;36701;51.798;19.474;2023-06-19T14:26:28;4.47;;;3.08;;
50733;SDS011;36701;51.798;19.474;2023-06-19T14:28:54;8.27;;;3.37;;
50733;SDS011;36701;51.798;19.474;2023-06-19T14:31:23;6.40;;;3.65;;
50733;SDS011;36701;51.798;19.474;2023-06-19T14:33:49;3.58;;;3.17;;
50733;SDS011;36701;51.798;19.474;2023-06-19T14:36:16;7.97;;;3.62;;
50733;SDS011;36701;51.798;19.474;2023-06-19T14:38:42;3.17;;;2.97;;
50733;SDS011;36701;51.798;19.474;2023-06-19T14:41:08;3.37;;;3.10;;
50733;SDS011;36701;51.798;19.474;2023-06-19T14:43:34;5.00;;;2.85;;
50733;SDS011;36701;51.798;19.474;2023-06-19T14:46:01;4.87;;;2.78;;
50733;SDS011;36701;51.798;19.474;2023-06-19T14:48:31;3.03;;;2.83;;
50733;SDS011;36701;51.798;19.474;2023-06-19T14:50:57;4.03;;;3.58;;
50733;SDS011;36701;51.798;19.474;2023-06-19T14:53:23;4.85;;;3.03;;
50733;SDS011;36701;51.798;19.474;2023-06-19T14:55:50;3.33;;;2.97;;
50733;SDS011;36701;51.798;19.474;2023-06-19T14:58:16;5.75;;;3.12;;
50733;SDS011;36701;51.798;19.474;2023-06-19T15:00:43;10.25;;;3.10;;
50733;SDS011;36701;51.798;19.474;2023-06-19T15:03:10;3.72;;;3.30;;
50733;SDS011;36701;51.798;19.474;2023-06-19T15:05:36;6.97;;;3.55;;
50733;SDS011;36701;51.798;19.474;2023-06-19T15:08:09;9.02;;;3.78;;
50733;SDS011;36701;51.798;19.474;2023-06-19T15:10:36;2.58;;;2.47;;
50733;SDS011;36701;51.798;19.474;2023-06-19T15:13:03;3.53;;;3.22;;
50733;SDS011;36701;51.798;19.474;2023-06-19T15:15:30;3.47;;;3.20;;
50733;SDS011;36701;51.798;19.474;2023-06-19T15:17:57;7.50;;;3.37;;
50733;SDS011;36701;51.798;19.474;2023-06-19T15:20:24;3.15;;;3.05;;
50733;SDS011;36701;51.798;19.474;2023-06-19T15:22:50;3.28;;;3.10;;
50733;SDS011;36701;51.798;19.474;2023-06-19T15:25:17;10.77;;;4.25;;
50733;SDS011;36701;51.798;19.474;2023-06-19T15:27:43;3.17;;;2.97;;
50733;SDS011;36701;51.798;19.474;2023-06-19T15:30:09;4.12;;;3.50;;
50733;SDS011;36701;51.798;19.474;2023-06-19T15:32:36;3.70;;;3.40;;
50733;SDS011;36701;51.798;19.474;2023-06-19T15:35:03;8.57;;;3.87;;
50733;SDS011;36701;51.798;19.474;2023-06-19T15:37:29;3.60;;;3.17;;
50733;SDS011;36701;51.798;19.474;2023-06-19T15:39:55;3.87;;;3.58;;
50733;SDS011;36701;51.798;19.474;2023-06-19T15:42:21;3.53;;;3.22;;
50733;SDS011;36701;51.798;19.474;2023-06-19T15:44:48;3.28;;;3.08;;
50733;SDS011;36701;51.798;19.474;2023-06-19T15:47:14;3.45;;;3.15;;
50733;SDS011;36701;51.798;19.474;2023-06-19T15:49:41;5.47;;;3.50;;
50733;SDS011;36701;51.798;19.474;2023-06-19T15:52:06;3.92;;;3.62;;
50733;SDS011;36701;51.798;19.474;2023-06-19T15:54:33;4.45;;;3.42;;
50733;SDS011;36701;51.798;19.474;2023-06-19T15:56:59;4.70;;;3.22;;
50733;SDS011;36701;51.798;19.474;2023-06-19T15:59:26;4.70;;;3.42;;
50733;SDS011;36701;51.798;19.474;2023-06-19T16:01:52;5.72;;;3.87;;
50733;SDS011;36701;51.798;19.474;2023-06-19T16:04:19;3.87;;;3.58;;
50733;SDS011;36701;51.798;19.474;2023-06-19T16:06:45;10.30;;;3.92;;
50733;SDS011;36701;51.798;19.474;2023-06-19T16:09:11;6.80;;;3.80;;
50733;SDS011;36701;51.798;19.474;2023-06-19T16:11:37;3.97;;;3.78;;
50733;SDS011;36701;51.798;19.474;2023-06-19T16:14:03;3.40;;;3.20;;
50733;SDS011;36701;51.798;19.474;2023-06-19T16:16:29;3.35;;;3.00;;
50733;SDS011;36701;51.798;19.474;2023-06-19T16:18:56;8.10;;;3.78;;
50733;SDS011;36701;51.798;19.474;2023-06-19T16:21:22;4.97;;;3.58;;
50733;SDS011;36701;51.798;19.474;2023-06-19T16:23:49;3.67;;;3.47;;
50733;SDS011;36701;51.798;19.474;2023-06-19T16:26:15;4.75;;;3.40;;
50733;SDS011;36701;51.798;19.474;2023-06-19T16:28:41;3.47;;;3.28;;
50733;SDS011;36701;51.798;19.474;2023-06-19T16:31:07;3.60;;;3.30;;
50733;SDS011;36701;51.798;19.474;2023-06-19T16:33:35;3.47;;;3.28;;